sensor_id;sensor_type;location;lat;lon;timestamp;temperature;humidity
24232;DHT22;12364;47.810;8.810;2022-12-18T00:02:05;2.40;90.00
24232;DHT22;12364;47.810;8.810;2022-12-18T00:04:32;2.30;90.20
24232;DHT22;12364;47.810;8.810;2022-12-18T00:06:59;2.30;90.30
24232;DHT22;12364;47.810;8.810;2022-12-18T00:09:26;2.40;90.40
24232;DHT22;12364;47.810;8.810;2022-12-18T00:12:05;2.30;90.40
24232;DHT22;12364;47.810;8.810;2022-12-18T00:14:41;2.40;90.30
24232;DHT22;12364;47.810;8.810;2022-12-18T00:17:11;2.40;90.40
24232;DHT22;12364;47.810;8.810;2022-12-18T00:19:38;2.40;90.40
24232;DHT22;12364;47.810;8.810;2022-12-18T00:22:05;2.40;90.40
24232;DHT22;12364;47.810;8.810;2022-12-18T00:24:33;2.40;90.20
24232;DHT22;12364;47.810;8.810;2022-12-18T00:27:00;2.40;90.40
24232;DHT22;12364;47.810;8.810;2022-12-18T00:29:26;2.40;90.50
24232;DHT22;12364;47.810;8.810;2022-12-18T05:31:29;2.70;91.90
24232;DHT22;12364;47.810;8.810;2022-12-18T05:34:03;2.80;91.70
24232;DHT22;12364;47.810;8.810;2022-12-18T05:36:30;2.80;91.70
24232;DHT22;12364;47.810;8.810;2022-12-18T05:38:57;2.90;91.90
24232;DHT22;12364;47.810;8.810;2022-12-18T05:41:24;2.80;91.90
24232;DHT22;12364;47.810;8.810;2022-12-18T05:43:51;2.90;91.80
24232;DHT22;12364;47.810;8.810;2022-12-18T05:46:18;2.90;91.70
24232;DHT22;12364;47.810;8.810;2022-12-18T05:48:45;2.90;91.60
24232;DHT22;12364;47.810;8.810;2022-12-18T05:51:14;2.80;91.60
24232;DHT22;12364;47.810;8.810;2022-12-18T05:53:42;2.90;91.70
24232;DHT22;12364;47.810;8.810;2022-12-18T05:56:11;2.90;91.50
24232;DHT22;12364;47.810;8.810;2022-12-18T05:58:38;2.90;91.60
24232;DHT22;12364;47.810;8.810;2022-12-18T06:01:07;2.90;91.60
24232;DHT22;12364;47.810;8.810;2022-12-18T06:03:34;2.90;91.70
24232;DHT22;12364;47.810;8.810;2022-12-18T06:06:01;2.90;91.80
24232;DHT22;12364;47.810;8.810;2022-12-18T06:08:28;2.90;91.80
24232;DHT22;12364;47.810;8.810;2022-12-18T06:10:55;2.90;91.90
24232;DHT22;12364;47.810;8.810;2022-12-18T06:13:22;2.90;91.60
24232;DHT22;12364;47.810;8.810;2022-12-18T06:15:49;3.00;91.70
24232;DHT22;12364;47.810;8.810;2022-12-18T06:18:16;3.20;91.80
24232;DHT22;12364;47.810;8.810;2022-12-18T06:20:43;3.10;91.50
24232;DHT22;12364;47.810;8.810;2022-12-18T06:23:10;3.00;91.40
24232;DHT22;12364;47.810;8.810;2022-12-18T06:25:38;3.00;91.50
24232;DHT22;12364;47.810;8.810;2022-12-18T06:28:05;3.00;91.60
24232;DHT22;12364;47.810;8.810;2022-12-18T06:30:32;2.90;91.60
24232;DHT22;12364;47.810;8.810;2022-12-18T06:32:59;2.90;91.70
24232;DHT22;12364;47.810;8.810;2022-12-18T06:35:27;2.70;91.80
24232;DHT22;12364;47.810;8.810;2022-12-18T06:37:54;3.00;91.80
24232;DHT22;12364;47.810;8.810;2022-12-18T06:40:21;3.20;91.80
24232;DHT22;12364;47.810;8.810;2022-12-18T06:42:48;3.10;91.80
24232;DHT22;12364;47.810;8.810;2022-12-18T06:45:15;2.90;91.70
24232;DHT22;12364;47.810;8.810;2022-12-18T06:47:42;2.90;91.90
24232;DHT22;12364;47.810;8.810;2022-12-18T06:50:10;3.00;91.90
24232;DHT22;12364;47.810;8.810;2022-12-18T06:52:37;3.00;91.90
24232;DHT22;12364;47.810;8.810;2022-12-18T06:55:06;3.00;91.60
24232;DHT22;12364;47.810;8.810;2022-12-18T06:57:34;3.00;91.80
24232;DHT22;12364;47.810;8.810;2022-12-18T07:00:02;3.00;91.90
24232;DHT22;12364;47.810;8.810;2022-12-18T07:02:29;3.00;91.80
24232;DHT22;12364;47.810;8.810;2022-12-18T07:04:56;3.00;91.80
24232;DHT22;12364;47.810;8.810;2022-12-18T07:07:24;3.00;91.90
24232;DHT22;12364;47.810;8.810;2022-12-18T07:09:51;3.10;91.90
24232;DHT22;12364;47.810;8.810;2022-12-18T07:12:18;3.10;91.80
24232;DHT22;12364;47.810;8.810;2022-12-18T07:14:45;3.10;91.90
24232;DHT22;12364;47.810;8.810;2022-12-18T07:17:12;3.10;91.70
24232;DHT22;12364;47.810;8.810;2022-12-18T07:19:39;3.20;91.60
24232;DHT22;12364;47.810;8.810;2022-12-18T07:22:06;3.10;91.50
24232;DHT22;12364;47.810;8.810;2022-12-18T07:24:33;3.10;91.70
24232;DHT22;12364;47.810;8.810;2022-12-18T07:27:01;3.10;91.80
24232;DHT22;12364;47.810;8.810;2022-12-18T07:29:28;3.30;91.80
24232;DHT22;12364;47.810;8.810;2022-12-18T07:31:55;3.00;91.80
24232;DHT22;12364;47.810;8.810;2022-12-18T07:34:22;3.00;91.90
24232;DHT22;12364;47.810;8.810;2022-12-18T07:36:49;3.00;91.80
24232;DHT22;12364;47.810;8.810;2022-12-18T07:39:16;3.10;92.00
24232;DHT22;12364;47.810;8.810;2022-12-18T07:41:43;3.10;92.00
24232;DHT22;12364;47.810;8.810;2022-12-18T07:44:30;3.10;91.90
24232;DHT22;12364;47.810;8.810;2022-12-18T07:46:57;3.10;92.00
24232;DHT22;12364;47.810;8.810;2022-12-18T07:49:24;3.40;92.10
24232;DHT22;12364;47.810;8.810;2022-12-18T07:51:53;3.20;92.00
24232;DHT22;12364;47.810;8.810;2022-12-18T07:54:20;3.20;92.00
24232;DHT22;12364;47.810;8.810;2022-12-18T07:56:47;3.20;91.90
24232;DHT22;12364;47.810;8.810;2022-12-18T07:59:14;3.20;91.80
24232;DHT22;12364;47.810;8.810;2022-12-18T08:01:41;3.10;91.90
24232;DHT22;12364;47.810;8.810;2022-12-18T08:04:08;3.10;92.00
24232;DHT22;12364;47.810;8.810;2022-12-18T08:06:35;3.10;92.00
24232;DHT22;12364;47.810;8.810;2022-12-18T08:09:03;3.10;92.00
24232;DHT22;12364;47.810;8.810;2022-12-18T08:11:30;3.20;92.00
24232;DHT22;12364;47.810;8.810;2022-12-18T08:13:57;3.20;92.10
24232;DHT22;12364;47.810;8.810;2022-12-18T08:16:24;3.20;92.00
24232;DHT22;12364;47.810;8.810;2022-12-18T08:18:52;3.20;92.10
24232;DHT22;12364;47.810;8.810;2022-12-18T08:21:20;3.30;92.10
24232;DHT22;12364;47.810;8.810;2022-12-18T08:23:50;3.40;92.10
24232;DHT22;12364;47.810;8.810;2022-12-18T08:26:18;3.20;92.10
24232;DHT22;12364;47.810;8.810;2022-12-18T08:28:46;3.30;92.10
24232;DHT22;12364;47.810;8.810;2022-12-18T08:31:13;3.30;92.10
24232;DHT22;12364;47.810;8.810;2022-12-18T08:33:41;3.30;92.00
24232;DHT22;12364;47.810;8.810;2022-12-18T08:36:09;3.40;92.20
24232;DHT22;12364;47.810;8.810;2022-12-18T08:38:36;3.40;92.00
24232;DHT22;12364;47.810;8.810;2022-12-18T08:41:07;3.40;91.90
24232;DHT22;12364;47.810;8.810;2022-12-18T08:43:34;3.40;92.10
24232;DHT22;12364;47.810;8.810;2022-12-18T08:46:20;3.40;92.10
24232;DHT22;12364;47.810;8.810;2022-12-18T08:48:50;3.50;92.00
24232;DHT22;12364;47.810;8.810;2022-12-18T08:51:17;3.50;91.80
24232;DHT22;12364;47.810;8.810;2022-12-18T08:53:44;3.50;91.90
24232;DHT22;12364;47.810;8.810;2022-12-18T08:56:12;3.70;92.10
24232;DHT22;12364;47.810;8.810;2022-12-18T08:58:39;3.50;92.10
24232;DHT22;12364;47.810;8.810;2022-12-18T09:01:07;3.50;91.90
24232;DHT22;12364;47.810;8.810;2022-12-18T09:03:36;3.50;92.00
24232;DHT22;12364;47.810;8.810;2022-12-18T09:06:03;3.50;91.90
24232;DHT22;12364;47.810;8.810;2022-12-18T09:08:30;3.60;91.90
24232;DHT22;12364;47.810;8.810;2022-12-18T09:10:58;3.50;92.00
24232;DHT22;12364;47.810;8.810;2022-12-18T09:13:25;3.50;92.10
24232;DHT22;12364;47.810;8.810;2022-12-18T09:15:52;3.60;92.10
24232;DHT22;12364;47.810;8.810;2022-12-18T09:18:20;3.60;91.80
24232;DHT22;12364;47.810;8.810;2022-12-18T09:20:47;3.60;91.90
24232;DHT22;12364;47.810;8.810;2022-12-18T09:23:14;3.60;91.90
24232;DHT22;12364;47.810;8.810;2022-12-18T09:25:41;3.60;91.80
24232;DHT22;12364;47.810;8.810;2022-12-18T09:28:26;3.80;91.90
24232;DHT22;12364;47.810;8.810;2022-12-18T09:30:56;3.60;92.10
24232;DHT22;12364;47.810;8.810;2022-12-18T09:33:26;3.80;92.10
24232;DHT22;12364;47.810;8.810;2022-12-18T09:35:53;3.60;91.90
24232;DHT22;12364;47.810;8.810;2022-12-18T09:38:21;3.70;92.10
24232;DHT22;12364;47.810;8.810;2022-12-18T09:40:51;3.70;92.20
24232;DHT22;12364;47.810;8.810;2022-12-18T09:44:05;3.70;92.20
24232;DHT22;12364;47.810;8.810;2022-12-18T09:46:15;3.60;92.00
24232;DHT22;12364;47.810;8.810;2022-12-18T09:48:44;3.60;91.80
24232;DHT22;12364;47.810;8.810;2022-12-18T09:51:18;3.80;92.20
24232;DHT22;12364;47.810;8.810;2022-12-18T09:53:47;3.60;92.00
24232;DHT22;12364;47.810;8.810;2022-12-18T09:56:18;3.60;91.70
24232;DHT22;12364;47.810;8.810;2022-12-18T09:58:47;3.60;91.90
24232;DHT22;12364;47.810;8.810;2022-12-18T10:01:22;3.80;92.20
24232;DHT22;12364;47.810;8.810;2022-12-18T10:04:01;3.60;92.10
24232;DHT22;12364;47.810;8.810;2022-12-18T10:06:50;3.80;92.10
24232;DHT22;12364;47.810;8.810;2022-12-18T10:22:39;3.60;92.20
24232;DHT22;12364;47.810;8.810;2022-12-18T10:27:41;3.70;92.30
24232;DHT22;12364;47.810;8.810;2022-12-18T10:30:12;3.70;92.00
24232;DHT22;12364;47.810;8.810;2022-12-18T10:32:39;3.70;92.00
24232;DHT22;12364;47.810;8.810;2022-12-18T10:35:23;3.70;91.90
24232;DHT22;12364;47.810;8.810;2022-12-18T10:38:07;3.70;91.90
24232;DHT22;12364;47.810;8.810;2022-12-18T10:43:14;3.70;92.10
24232;DHT22;12364;47.810;8.810;2022-12-18T10:45:42;4.00;92.20
24232;DHT22;12364;47.810;8.810;2022-12-18T10:48:21;4.00;92.20
24232;DHT22;12364;47.810;8.810;2022-12-18T10:50:49;3.90;92.10
24232;DHT22;12364;47.810;8.810;2022-12-18T10:53:38;3.90;92.10
24232;DHT22;12364;47.810;8.810;2022-12-18T10:56:06;3.90;92.00
24232;DHT22;12364;47.810;8.810;2022-12-18T10:58:35;3.90;92.10
24232;DHT22;12364;47.810;8.810;2022-12-18T11:01:13;3.90;92.30
24232;DHT22;12364;47.810;8.810;2022-12-18T11:06:15;3.90;92.10
24232;DHT22;12364;47.810;8.810;2022-12-18T11:08:59;3.90;92.30
24232;DHT22;12364;47.810;8.810;2022-12-18T11:11:42;3.90;91.80
24232;DHT22;12364;47.810;8.810;2022-12-18T11:14:17;3.70;91.80
24232;DHT22;12364;47.810;8.810;2022-12-18T11:16:46;4.00;92.00
24232;DHT22;12364;47.810;8.810;2022-12-18T11:19:38;3.80;92.00
24232;DHT22;12364;47.810;8.810;2022-12-18T11:22:21;3.80;92.10
24232;DHT22;12364;47.810;8.810;2022-12-18T11:25:02;3.80;92.40
24232;DHT22;12364;47.810;8.810;2022-12-18T11:27:55;4.00;92.30
24232;DHT22;12364;47.810;8.810;2022-12-18T11:30:30;4.00;92.10
24232;DHT22;12364;47.810;8.810;2022-12-18T11:33:01;3.90;92.20
24232;DHT22;12364;47.810;8.810;2022-12-18T11:35:47;3.70;92.20
24232;DHT22;12364;47.810;8.810;2022-12-18T11:38:21;4.00;92.30
24232;DHT22;12364;47.810;8.810;2022-12-18T11:40:56;4.00;92.30
24232;DHT22;12364;47.810;8.810;2022-12-18T11:46:15;4.00;92.10
24232;DHT22;12364;47.810;8.810;2022-12-18T11:48:58;4.00;92.20
24232;DHT22;12364;47.810;8.810;2022-12-18T11:51:45;4.00;92.10
24232;DHT22;12364;47.810;8.810;2022-12-18T11:54:17;4.00;92.30
24232;DHT22;12364;47.810;8.810;2022-12-18T11:56:47;4.20;92.10
24232;DHT22;12364;47.810;8.810;2022-12-18T12:01:48;4.10;92.00
24232;DHT22;12364;47.810;8.810;2022-12-18T12:09:27;4.10;92.00
24232;DHT22;12364;47.810;8.810;2022-12-18T12:22:03;4.30;92.20
24232;DHT22;12364;47.810;8.810;2022-12-18T12:29:58;4.40;92.20
24232;DHT22;12364;47.810;8.810;2022-12-18T12:35:19;4.50;92.20
24232;DHT22;12364;47.810;8.810;2022-12-18T12:37:48;4.50;92.40
24232;DHT22;12364;47.810;8.810;2022-12-18T12:40:22;4.30;92.00
24232;DHT22;12364;47.810;8.810;2022-12-18T12:45:49;4.40;92.10
24232;DHT22;12364;47.810;8.810;2022-12-18T12:48:32;4.20;92.30
24232;DHT22;12364;47.810;8.810;2022-12-18T12:51:00;4.20;92.30
24232;DHT22;12364;47.810;8.810;2022-12-18T12:53:31;4.20;92.40
24232;DHT22;12364;47.810;8.810;2022-12-18T12:56:00;4.40;92.50
24232;DHT22;12364;47.810;8.810;2022-12-18T12:58:29;4.30;92.30
24232;DHT22;12364;47.810;8.810;2022-12-18T13:01:21;4.50;92.30
24232;DHT22;12364;47.810;8.810;2022-12-18T13:08:51;4.30;92.20
24232;DHT22;12364;47.810;8.810;2022-12-18T13:17:13;4.20;92.20
24232;DHT22;12364;47.810;8.810;2022-12-18T13:19:41;4.00;92.00
24232;DHT22;12364;47.810;8.810;2022-12-18T13:22:21;4.30;92.30
24232;DHT22;12364;47.810;8.810;2022-12-18T13:24:48;4.20;92.20
24232;DHT22;12364;47.810;8.810;2022-12-18T13:30:02;4.20;92.00
24232;DHT22;12364;47.810;8.810;2022-12-18T13:32:29;4.10;92.10
24232;DHT22;12364;47.810;8.810;2022-12-18T13:37:43;4.10;92.00
24232;DHT22;12364;47.810;8.810;2022-12-18T13:41:20;4.00;92.00
24232;DHT22;12364;47.810;8.810;2022-12-18T13:43:19;4.00;92.10
24232;DHT22;12364;47.810;8.810;2022-12-18T13:46:05;4.00;92.10
24232;DHT22;12364;47.810;8.810;2022-12-18T13:48:34;3.90;92.10
24232;DHT22;12364;47.810;8.810;2022-12-18T13:51:04;3.90;92.30
24232;DHT22;12364;47.810;8.810;2022-12-18T13:55:59;4.20;92.60
24232;DHT22;12364;47.810;8.810;2022-12-18T13:58:26;4.10;92.40
24232;DHT22;12364;47.810;8.810;2022-12-18T14:00:53;4.30;92.50
24232;DHT22;12364;47.810;8.810;2022-12-18T14:03:25;4.10;92.30
24232;DHT22;12364;47.810;8.810;2022-12-18T14:06:00;4.10;92.20
24232;DHT22;12364;47.810;8.810;2022-12-18T14:08:32;4.10;92.20
24232;DHT22;12364;47.810;8.810;2022-12-18T14:10:59;4.10;92.10
24232;DHT22;12364;47.810;8.810;2022-12-18T14:13:28;4.00;92.10
24232;DHT22;12364;47.810;8.810;2022-12-18T14:15:56;4.00;92.10
24232;DHT22;12364;47.810;8.810;2022-12-18T14:18:29;4.10;92.40
24232;DHT22;12364;47.810;8.810;2022-12-18T14:20:57;4.10;91.80
24232;DHT22;12364;47.810;8.810;2022-12-18T14:23:38;4.30;92.10
24232;DHT22;12364;47.810;8.810;2022-12-18T14:28:52;4.10;91.90
24232;DHT22;12364;47.810;8.810;2022-12-18T14:31:24;4.30;92.00
24232;DHT22;12364;47.810;8.810;2022-12-18T14:33:52;4.10;92.00
24232;DHT22;12364;47.810;8.810;2022-12-18T14:36:23;4.00;91.90
24232;DHT22;12364;47.810;8.810;2022-12-18T14:38:51;4.00;92.10
24232;DHT22;12364;47.810;8.810;2022-12-18T14:41:20;4.00;92.20
24232;DHT22;12364;47.810;8.810;2022-12-18T14:43:49;4.00;92.30
24232;DHT22;12364;47.810;8.810;2022-12-18T14:49:03;3.90;92.20
24232;DHT22;12364;47.810;8.810;2022-12-18T14:51:31;4.00;92.40
24232;DHT22;12364;47.810;8.810;2022-12-18T14:54:01;3.90;92.30
24232;DHT22;12364;47.810;8.810;2022-12-18T14:56:29;3.90;92.30
24232;DHT22;12364;47.810;8.810;2022-12-18T14:59:01;3.90;92.30
24232;DHT22;12364;47.810;8.810;2022-12-18T15:03:56;3.90;92.50
24232;DHT22;12364;47.810;8.810;2022-12-18T15:06:25;3.90;92.40
24232;DHT22;12364;47.810;8.810;2022-12-18T15:08:53;3.90;92.40
24232;DHT22;12364;47.810;8.810;2022-12-18T15:17:05;4.00;92.20
24232;DHT22;12364;47.810;8.810;2022-12-18T15:19:38;4.00;92.20
24232;DHT22;12364;47.810;8.810;2022-12-18T15:22:14;4.00;92.10
24232;DHT22;12364;47.810;8.810;2022-12-18T15:24:46;3.90;92.30
24232;DHT22;12364;47.810;8.810;2022-12-18T15:27:35;4.20;92.60
24232;DHT22;12364;47.810;8.810;2022-12-18T15:32:37;4.00;92.30
24232;DHT22;12364;47.810;8.810;2022-12-18T15:37:39;4.00;92.40
24232;DHT22;12364;47.810;8.810;2022-12-18T15:40:08;4.00;92.40
24232;DHT22;12364;47.810;8.810;2022-12-18T15:42:38;4.00;92.50
24232;DHT22;12364;47.810;8.810;2022-12-18T15:45:24;4.20;92.50
24232;DHT22;12364;47.810;8.810;2022-12-18T15:47:51;4.10;92.60
24232;DHT22;12364;47.810;8.810;2022-12-18T15:50:18;3.90;92.50
24232;DHT22;12364;47.810;8.810;2022-12-18T15:52:46;3.90;92.50
24232;DHT22;12364;47.810;8.810;2022-12-18T15:55:14;3.90;92.40
24232;DHT22;12364;47.810;8.810;2022-12-18T15:58:01;3.90;92.60
24232;DHT22;12364;47.810;8.810;2022-12-18T16:00:29;3.90;92.50
24232;DHT22;12364;47.810;8.810;2022-12-18T16:02:56;3.90;92.60
24232;DHT22;12364;47.810;8.810;2022-12-18T16:05:23;3.90;92.60
24232;DHT22;12364;47.810;8.810;2022-12-18T16:07:50;3.90;92.70
24232;DHT22;12364;47.810;8.810;2022-12-18T16:10:17;3.90;92.70
24232;DHT22;12364;47.810;8.810;2022-12-18T16:12:45;3.90;92.60
24232;DHT22;12364;47.810;8.810;2022-12-18T16:15:13;4.00;92.40
24232;DHT22;12364;47.810;8.810;2022-12-18T16:17:46;4.00;92.70
24232;DHT22;12364;47.810;8.810;2022-12-18T16:20:15;4.00;92.60
24232;DHT22;12364;47.810;8.810;2022-12-18T16:22:43;4.00;92.60
24232;DHT22;12364;47.810;8.810;2022-12-18T16:25:19;4.00;92.70
24232;DHT22;12364;47.810;8.810;2022-12-18T16:27:47;4.10;92.70
24232;DHT22;12364;47.810;8.810;2022-12-18T16:30:16;4.10;92.60
24232;DHT22;12364;47.810;8.810;2022-12-18T16:32:43;4.20;92.50
24232;DHT22;12364;47.810;8.810;2022-12-18T16:35:11;4.20;92.40
24232;DHT22;12364;47.810;8.810;2022-12-18T16:37:39;4.20;92.60
24232;DHT22;12364;47.810;8.810;2022-12-18T16:40:07;4.10;92.50
24232;DHT22;12364;47.810;8.810;2022-12-18T16:42:36;4.10;92.60
24232;DHT22;12364;47.810;8.810;2022-12-18T16:45:04;4.20;92.60
24232;DHT22;12364;47.810;8.810;2022-12-18T16:47:32;4.20;92.70
24232;DHT22;12364;47.810;8.810;2022-12-18T16:49:59;4.50;92.80
24232;DHT22;12364;47.810;8.810;2022-12-18T16:52:26;4.30;92.50
24232;DHT22;12364;47.810;8.810;2022-12-18T16:54:53;4.30;92.60
24232;DHT22;12364;47.810;8.810;2022-12-18T16:57:20;4.30;92.50
24232;DHT22;12364;47.810;8.810;2022-12-18T16:59:51;4.30;92.50
24232;DHT22;12364;47.810;8.810;2022-12-18T17:02:19;4.30;92.40
24232;DHT22;12364;47.810;8.810;2022-12-18T17:04:51;4.30;92.50
24232;DHT22;12364;47.810;8.810;2022-12-18T17:07:18;4.30;92.40
24232;DHT22;12364;47.810;8.810;2022-12-18T17:09:45;4.30;92.60
24232;DHT22;12364;47.810;8.810;2022-12-18T17:12:12;4.30;92.50
24232;DHT22;12364;47.810;8.810;2022-12-18T17:14:40;4.30;92.40
24232;DHT22;12364;47.810;8.810;2022-12-18T17:17:07;4.30;92.50
24232;DHT22;12364;47.810;8.810;2022-12-18T17:19:47;4.30;92.40
24232;DHT22;12364;47.810;8.810;2022-12-18T17:22:14;4.30;92.70
24232;DHT22;12364;47.810;8.810;2022-12-18T17:24:41;4.30;92.50
24232;DHT22;12364;47.810;8.810;2022-12-18T17:27:08;4.30;92.40
24232;DHT22;12364;47.810;8.810;2022-12-18T17:29:35;4.30;92.60
24232;DHT22;12364;47.810;8.810;2022-12-18T17:32:09;4.30;92.60
24232;DHT22;12364;47.810;8.810;2022-12-18T17:34:36;4.20;92.60
24232;DHT22;12364;47.810;8.810;2022-12-18T17:37:03;4.20;92.70
24232;DHT22;12364;47.810;8.810;2022-12-18T17:39:30;4.20;92.70
24232;DHT22;12364;47.810;8.810;2022-12-18T17:42:00;4.10;92.70
24232;DHT22;12364;47.810;8.810;2022-12-18T17:44:27;4.40;92.80
24232;DHT22;12364;47.810;8.810;2022-12-18T17:46:54;4.30;93.00
24232;DHT22;12364;47.810;8.810;2022-12-18T17:49:21;4.20;92.80
24232;DHT22;12364;47.810;8.810;2022-12-18T17:51:48;4.20;92.80
24232;DHT22;12364;47.810;8.810;2022-12-18T17:54:15;4.30;92.90
24232;DHT22;12364;47.810;8.810;2022-12-18T17:56:42;4.30;92.60
24232;DHT22;12364;47.810;8.810;2022-12-18T17:59:10;4.50;92.70
24232;DHT22;12364;47.810;8.810;2022-12-18T18:01:37;4.30;92.80
24232;DHT22;12364;47.810;8.810;2022-12-18T18:04:10;4.40;92.80
24232;DHT22;12364;47.810;8.810;2022-12-18T18:06:37;4.30;92.80
24232;DHT22;12364;47.810;8.810;2022-12-18T18:09:05;4.30;92.70
24232;DHT22;12364;47.810;8.810;2022-12-18T18:11:43;4.30;93.10
24232;DHT22;12364;47.810;8.810;2022-12-18T18:14:29;4.70;93.00
24232;DHT22;12364;47.810;8.810;2022-12-18T18:16:56;4.40;92.90
24232;DHT22;12364;47.810;8.810;2022-12-18T18:19:30;4.40;92.80
24232;DHT22;12364;47.810;8.810;2022-12-18T18:21:58;4.50;92.90
24232;DHT22;12364;47.810;8.810;2022-12-18T18:24:25;4.40;92.70
24232;DHT22;12364;47.810;8.810;2022-12-18T18:26:52;4.50;92.90
24232;DHT22;12364;47.810;8.810;2022-12-18T18:29:20;4.40;92.90
24232;DHT22;12364;47.810;8.810;2022-12-18T18:31:47;4.60;93.10
24232;DHT22;12364;47.810;8.810;2022-12-18T18:34:21;4.30;93.10
24232;DHT22;12364;47.810;8.810;2022-12-18T18:36:49;4.40;93.00
24232;DHT22;12364;47.810;8.810;2022-12-18T18:39:16;4.40;93.00
24232;DHT22;12364;47.810;8.810;2022-12-18T18:41:44;4.30;92.90
24232;DHT22;12364;47.810;8.810;2022-12-18T18:44:14;4.30;93.00
24232;DHT22;12364;47.810;8.810;2022-12-18T18:46:41;4.20;93.00
24232;DHT22;12364;47.810;8.810;2022-12-18T18:49:08;4.30;93.00
24232;DHT22;12364;47.810;8.810;2022-12-18T18:51:35;4.20;93.00
24232;DHT22;12364;47.810;8.810;2022-12-18T18:54:02;4.10;93.00
24232;DHT22;12364;47.810;8.810;2022-12-18T18:56:29;4.10;93.20
24232;DHT22;12364;47.810;8.810;2022-12-18T18:59:17;4.10;93.10
24232;DHT22;12364;47.810;8.810;2022-12-18T19:01:44;4.20;93.20
24232;DHT22;12364;47.810;8.810;2022-12-18T19:04:11;4.10;93.20
24232;DHT22;12364;47.810;8.810;2022-12-18T19:06:38;4.30;93.20
24232;DHT22;12364;47.810;8.810;2022-12-18T19:09:06;4.20;93.30
24232;DHT22;12364;47.810;8.810;2022-12-18T19:11:33;4.20;93.30
24232;DHT22;12364;47.810;8.810;2022-12-18T19:14:19;4.20;93.30
24232;DHT22;12364;47.810;8.810;2022-12-18T19:16:49;4.30;93.30
24232;DHT22;12364;47.810;8.810;2022-12-18T19:19:16;4.10;93.10
24232;DHT22;12364;47.810;8.810;2022-12-18T19:21:47;4.40;93.20
24232;DHT22;12364;47.810;8.810;2022-12-18T19:24:14;4.10;93.00
24232;DHT22;12364;47.810;8.810;2022-12-18T19:26:41;4.10;93.10
24232;DHT22;12364;47.810;8.810;2022-12-18T19:29:09;4.10;93.20
24232;DHT22;12364;47.810;8.810;2022-12-18T19:31:37;4.10;93.20
24232;DHT22;12364;47.810;8.810;2022-12-18T19:34:04;4.10;93.20
24232;DHT22;12364;47.810;8.810;2022-12-18T19:36:33;4.10;93.20
24232;DHT22;12364;47.810;8.810;2022-12-18T19:39:05;4.10;93.30
24232;DHT22;12364;47.810;8.810;2022-12-18T19:41:33;4.10;93.20
24232;DHT22;12364;47.810;8.810;2022-12-18T19:44:00;4.20;93.10
24232;DHT22;12364;47.810;8.810;2022-12-18T19:46:34;4.10;93.10
24232;DHT22;12364;47.810;8.810;2022-12-18T19:49:01;4.20;93.20
24232;DHT22;12364;47.810;8.810;2022-12-18T19:51:29;4.10;93.20
24232;DHT22;12364;47.810;8.810;2022-12-18T19:53:57;4.30;93.50
24232;DHT22;12364;47.810;8.810;2022-12-18T19:56:31;4.10;93.40
24232;DHT22;12364;47.810;8.810;2022-12-18T19:58:59;4.10;93.30
24232;DHT22;12364;47.810;8.810;2022-12-18T20:01:26;4.10;93.30
24232;DHT22;12364;47.810;8.810;2022-12-18T20:03:54;4.10;93.40
24232;DHT22;12364;47.810;8.810;2022-12-18T20:06:31;4.10;93.20
24232;DHT22;12364;47.810;8.810;2022-12-18T20:09:03;4.10;93.30
24232;DHT22;12364;47.810;8.810;2022-12-18T20:11:31;4.10;93.40
24232;DHT22;12364;47.810;8.810;2022-12-18T20:13:58;4.10;93.20
24232;DHT22;12364;47.810;8.810;2022-12-18T20:16:25;4.10;93.30
24232;DHT22;12364;47.810;8.810;2022-12-18T20:18:52;4.10;93.30
24232;DHT22;12364;47.810;8.810;2022-12-18T20:21:19;4.10;93.30
24232;DHT22;12364;47.810;8.810;2022-12-18T20:23:46;4.00;93.30
24232;DHT22;12364;47.810;8.810;2022-12-18T20:26:14;4.30;93.50
24232;DHT22;12364;47.810;8.810;2022-12-18T20:28:41;4.10;93.40
24232;DHT22;12364;47.810;8.810;2022-12-18T20:31:08;4.10;93.30
24232;DHT22;12364;47.810;8.810;2022-12-18T20:33:40;4.10;93.40
24232;DHT22;12364;47.810;8.810;2022-12-18T20:36:12;4.10;93.40
24232;DHT22;12364;47.810;8.810;2022-12-18T20:38:41;4.10;93.40
24232;DHT22;12364;47.810;8.810;2022-12-18T20:41:09;4.10;93.40
24232;DHT22;12364;47.810;8.810;2022-12-18T20:43:37;4.30;93.50
24232;DHT22;12364;47.810;8.810;2022-12-18T20:46:06;4.20;93.40
24232;DHT22;12364;47.810;8.810;2022-12-18T20:48:33;4.20;93.60
24232;DHT22;12364;47.810;8.810;2022-12-18T20:51:02;4.00;93.50
24232;DHT22;12364;47.810;8.810;2022-12-18T20:53:30;4.00;93.50
24232;DHT22;12364;47.810;8.810;2022-12-18T20:55:57;4.20;93.60
24232;DHT22;12364;47.810;8.810;2022-12-18T20:58:24;4.00;93.50
24232;DHT22;12364;47.810;8.810;2022-12-18T21:01:08;4.30;93.50
24232;DHT22;12364;47.810;8.810;2022-12-18T21:03:39;4.00;93.50
24232;DHT22;12364;47.810;8.810;2022-12-18T21:06:06;4.00;93.50
24232;DHT22;12364;47.810;8.810;2022-12-18T21:08:34;4.30;93.60
24232;DHT22;12364;47.810;8.810;2022-12-18T21:11:11;4.00;93.40
24232;DHT22;12364;47.810;8.810;2022-12-18T21:13:58;4.00;93.40
24232;DHT22;12364;47.810;8.810;2022-12-18T21:16:26;4.20;93.40
24232;DHT22;12364;47.810;8.810;2022-12-18T21:18:54;4.00;93.40
24232;DHT22;12364;47.810;8.810;2022-12-18T21:21:22;4.00;93.40
24232;DHT22;12364;47.810;8.810;2022-12-18T21:23:53;4.20;93.50
24232;DHT22;12364;47.810;8.810;2022-12-18T21:26:21;4.10;93.40
24232;DHT22;12364;47.810;8.810;2022-12-18T21:28:52;4.00;93.40
24232;DHT22;12364;47.810;8.810;2022-12-18T21:31:20;4.00;93.50
24232;DHT22;12364;47.810;8.810;2022-12-18T21:33:49;4.00;93.60
24232;DHT22;12364;47.810;8.810;2022-12-18T21:36:18;4.00;93.60
24232;DHT22;12364;47.810;8.810;2022-12-18T21:38:45;4.20;93.70
24232;DHT22;12364;47.810;8.810;2022-12-18T21:41:13;3.90;93.70
24232;DHT22;12364;47.810;8.810;2022-12-18T21:44:04;3.90;93.80
24232;DHT22;12364;47.810;8.810;2022-12-18T21:46:32;4.20;93.90
24232;DHT22;12364;47.810;8.810;2022-12-18T21:49:00;4.00;93.90
24232;DHT22;12364;47.810;8.810;2022-12-18T21:51:27;4.00;93.70
24232;DHT22;12364;47.810;8.810;2022-12-18T21:53:54;4.10;93.70
24232;DHT22;12364;47.810;8.810;2022-12-18T21:56:21;4.10;93.70
24232;DHT22;12364;47.810;8.810;2022-12-18T21:58:49;4.00;93.80
24232;DHT22;12364;47.810;8.810;2022-12-18T22:01:23;3.90;93.80
24232;DHT22;12364;47.810;8.810;2022-12-18T22:04:02;4.00;93.90
24232;DHT22;12364;47.810;8.810;2022-12-18T22:06:29;4.00;93.90
24232;DHT22;12364;47.810;8.810;2022-12-18T22:08:56;4.00;94.00
24232;DHT22;12364;47.810;8.810;2022-12-18T22:11:23;3.90;93.90
24232;DHT22;12364;47.810;8.810;2022-12-18T22:13:50;3.90;93.80
24232;DHT22;12364;47.810;8.810;2022-12-18T22:16:18;3.90;93.90
24232;DHT22;12364;47.810;8.810;2022-12-18T22:18:45;4.10;93.90
24232;DHT22;12364;47.810;8.810;2022-12-18T22:21:19;3.90;93.90
24232;DHT22;12364;47.810;8.810;2022-12-18T22:26:22;3.90;94.10
24232;DHT22;12364;47.810;8.810;2022-12-18T22:28:49;3.90;94.10
24232;DHT22;12364;47.810;8.810;2022-12-18T22:31:35;3.90;94.20
24232;DHT22;12364;47.810;8.810;2022-12-18T22:34:03;3.80;94.20
24232;DHT22;12364;47.810;8.810;2022-12-18T22:36:34;3.80;94.20